createdAt,value
2023-01-19T00:02:01.126Z,73.39
2023-01-19T00:04:33.497Z,73.40
2023-01-19T00:07:05.893Z,73.38
2023-01-19T00:09:38.586Z,73.23
2023-01-19T00:12:11.227Z,73.55
2023-01-19T00:14:43.704Z,73.28
2023-01-19T00:17:16.205Z,73.42
2023-01-19T00:19:48.550Z,73.48
2023-01-19T00:22:20.975Z,73.55
2023-01-19T00:24:53.451Z,73.54
2023-01-19T00:27:25.953Z,73.68
2023-01-19T00:29:58.255Z,73.69
2023-01-19T00:32:30.543Z,73.44
2023-01-19T00:35:02.772Z,73.75
2023-01-19T00:37:35.108Z,73.72
2023-01-19T00:40:10.014Z,73.56
2023-01-19T00:42:44.696Z,73.68
2023-01-19T00:45:19.500Z,73.60
2023-01-19T00:47:57.406Z,73.74
2023-01-19T00:50:31.831Z,73.53
2023-01-19T00:53:04.182Z,73.79
2023-01-19T00:55:36.592Z,73.73
2023-01-19T00:58:09.046Z,73.54
2023-01-19T01:00:41.584Z,73.60
2023-01-19T01:03:14.014Z,73.86
2023-01-19T01:05:46.471Z,73.72
2023-01-19T01:08:18.799Z,73.54
2023-01-19T01:10:51.444Z,73.66
2023-01-19T01:13:26.400Z,73.94
2023-01-19T01:16:00.163Z,73.71
2023-01-19T01:18:32.562Z,73.72
2023-01-19T01:21:06.607Z,73.81
2023-01-19T01:23:39.305Z,74.12
2023-01-19T01:26:11.805Z,73.83
2023-01-19T01:28:44.231Z,73.75
2023-01-19T01:31:16.668Z,73.87
2023-01-19T01:33:49.119Z,73.76
2023-01-19T01:36:22.067Z,74.03
2023-01-19T01:38:54.421Z,73.96
2023-01-19T01:41:27.487Z,73.91
2023-01-19T01:44:01.884Z,74.22
2023-01-19T01:46:35.065Z,73.73
2023-01-19T01:49:13.598Z,73.86
2023-01-19T01:51:49.822Z,73.86
2023-01-19T01:54:27.184Z,73.88
2023-01-19T01:57:04.042Z,74.01
2023-01-19T01:59:39.484Z,73.93
2023-01-19T02:02:34.236Z,74.19
2023-01-19T02:05:10.729Z,73.99
2023-01-19T02:08:06.907Z,74.00
2023-01-19T02:10:57.225Z,74.16
2023-01-19T02:13:31.318Z,74.09
2023-01-19T02:16:07.609Z,73.80
2023-01-19T02:18:40.936Z,74.18
2023-01-19T02:21:20.254Z,74.34
2023-01-19T02:23:54.862Z,74.08
2023-01-19T02:26:32.355Z,74.15
2023-01-19T02:29:07.286Z,74.05
2023-01-19T02:31:41.631Z,74.26
2023-01-19T02:34:16.849Z,73.89
2023-01-19T02:36:53.650Z,74.16
2023-01-19T02:39:32.348Z,74.25
2023-01-19T02:42:07.876Z,74.21
2023-01-19T02:44:42.850Z,74.09
2023-01-19T02:47:15.423Z,73.99
2023-01-19T02:49:55.097Z,74.01
2023-01-19T02:52:29.243Z,74.14
2023-01-19T02:55:19.535Z,74.32
2023-01-19T02:58:03.143Z,74.16
2023-01-19T03:00:45.890Z,74.34
2023-01-19T03:03:31.492Z,74.18
2023-01-19T03:06:11.238Z,74.24
2023-01-19T03:08:49.520Z,73.92
2023-01-19T03:11:21.974Z,74.09
2023-01-19T03:14:00.976Z,74.51
2023-01-19T03:16:42.120Z,74.14
2023-01-19T03:19:19.295Z,74.05
2023-01-19T03:21:55.788Z,74.15
2023-01-19T03:24:34.211Z,74.16
2023-01-19T03:27:11.622Z,74.14
2023-01-19T03:29:50.986Z,74.32
2023-01-19T03:32:30.369Z,74.15
2023-01-19T03:35:06.200Z,74.32
2023-01-19T03:37:42.360Z,74.17
2023-01-19T03:40:15.617Z,73.92
2023-01-19T03:42:50.277Z,74.14
2023-01-19T03:45:23.861Z,73.86
2023-01-19T03:47:57.713Z,74.00
2023-01-19T03:50:32.115Z,74.17
2023-01-19T03:53:08.891Z,74.10
2023-01-19T03:55:44.176Z,73.96
2023-01-19T03:58:15.348Z,74.06
2023-01-19T04:00:47.991Z,74.42
2023-01-19T04:03:21.043Z,74.13
2023-01-19T04:05:53.550Z,74.13
2023-01-19T04:08:25.890Z,73.95
2023-01-19T04:11:00.362Z,74.02
2023-01-19T04:13:32.889Z,74.30
2023-01-19T04:16:06.479Z,74.25
2023-01-19T04:18:39.122Z,74.06
2023-01-19T04:21:11.566Z,74.01
2023-01-19T04:23:44.513Z,74.08
2023-01-19T04:26:16.978Z,74.11
2023-01-19T04:28:49.684Z,73.98
2023-01-19T04:31:23.385Z,74.02
2023-01-19T04:33:56.786Z,74.15
2023-01-19T04:36:29.440Z,74.11
2023-01-19T04:39:01.942Z,74.24
2023-01-19T04:41:34.320Z,74.41
2023-01-19T04:44:08.810Z,74.24
2023-01-19T04:46:41.471Z,74.14
2023-01-19T04:49:14.059Z,74.17
2023-01-19T04:51:46.570Z,74.38
2023-01-19T04:54:19.024Z,74.39
2023-01-19T04:56:51.577Z,74.02
2023-01-19T04:59:24.077Z,74.24
2023-01-19T05:01:57.347Z,74.28
2023-01-19T05:04:30.254Z,74.37
2023-01-19T05:07:02.627Z,74.38
2023-01-19T05:09:35.547Z,74.12
2023-01-19T05:12:08.570Z,74.27
2023-01-19T05:14:40.949Z,74.01
2023-01-19T05:17:13.424Z,74.07
2023-01-19T05:19:45.796Z,74.23
2023-01-19T05:22:18.511Z,74.40
2023-01-19T05:24:50.927Z,74.26
2023-01-19T05:27:23.359Z,74.18
2023-01-19T05:29:55.904Z,74.05
2023-01-19T05:32:28.282Z,74.18
2023-01-19T05:35:00.666Z,74.14
2023-01-19T05:37:33.023Z,74.20
2023-01-19T05:40:06.193Z,74.27
2023-01-19T05:42:38.972Z,74.55
2023-01-19T05:45:13.674Z,74.14
2023-01-19T05:47:45.996Z,74.33
2023-01-19T05:50:18.727Z,74.05
2023-01-19T05:52:53.367Z,74.07
2023-01-19T05:55:25.727Z,74.32
2023-01-19T05:57:58.156Z,74.40
2023-01-19T06:00:30.556Z,74.25
2023-01-19T06:03:03.386Z,74.27
2023-01-19T06:05:39.282Z,74.43
2023-01-19T06:08:11.845Z,74.25
2023-01-19T06:10:44.169Z,74.37
2023-01-19T06:13:16.460Z,74.26
2023-01-19T06:15:49.152Z,74.47
2023-01-19T06:18:21.591Z,74.43
2023-01-19T06:20:58.730Z,74.39
2023-01-19T06:23:33.920Z,74.40
2023-01-19T06:26:04.753Z,74.26
2023-01-19T06:28:37.288Z,74.29
2023-01-19T06:31:09.898Z,74.09
2023-01-19T06:33:42.389Z,74.45
2023-01-19T06:36:14.782Z,74.25
2023-01-19T06:38:47.565Z,74.12
2023-01-19T06:41:19.960Z,74.48
2023-01-19T06:43:52.308Z,74.38
2023-01-19T06:46:24.691Z,74.15
2023-01-19T06:48:57.272Z,74.37
2023-01-19T06:51:29.710Z,74.51
2023-01-19T06:54:02.645Z,74.46
2023-01-19T06:56:35.119Z,74.44
2023-01-19T06:59:08.546Z,74.30
2023-01-19T07:01:40.912Z,74.32
2023-01-19T07:04:15.278Z,74.44
2023-01-19T07:06:47.662Z,74.17
2023-01-19T07:09:20.562Z,74.63
2023-01-19T07:11:55.174Z,74.29
2023-01-19T07:14:33.642Z,74.64
2023-01-19T07:17:06.047Z,74.30
2023-01-19T07:19:38.590Z,74.26
2023-01-19T07:22:11.077Z,74.46
2023-01-19T07:24:43.360Z,74.22
2023-01-19T07:27:16.561Z,74.40
2023-01-19T07:29:48.823Z,74.39
2023-01-19T07:32:21.251Z,74.25
2023-01-19T07:34:53.622Z,74.34
2023-01-19T07:37:26.043Z,74.13
2023-01-19T07:39:58.443Z,74.44
2023-01-19T07:42:30.765Z,74.32
2023-01-19T07:45:03.139Z,74.62
2023-01-19T07:47:35.618Z,74.40
2023-01-19T07:50:09.804Z,74.26
2023-01-19T07:52:42.308Z,74.23
2023-01-19T07:55:14.658Z,74.34
2023-01-19T07:57:49.390Z,74.24
2023-01-19T08:00:25.336Z,74.50
2023-01-19T08:03:02.812Z,74.20
2023-01-19T08:05:36.033Z,74.37
2023-01-19T08:08:11.670Z,74.59
2023-01-19T08:10:44.055Z,74.38
2023-01-19T08:13:16.445Z,74.43
2023-01-19T08:15:52.568Z,74.53
2023-01-19T08:18:24.979Z,74.58
2023-01-19T08:20:59.351Z,74.52
2023-01-19T08:23:31.659Z,74.48
2023-01-19T08:26:18.336Z,74.54
2023-01-19T08:28:50.709Z,74.56
2023-01-19T08:31:24.894Z,74.66
2023-01-19T08:33:57.584Z,74.74
2023-01-19T08:36:30.508Z,74.67
2023-01-19T08:39:02.884Z,74.31
2023-01-19T08:41:35.435Z,74.50
2023-01-19T08:44:08.117Z,74.51
2023-01-19T08:46:40.562Z,74.61
2023-01-19T08:49:13.297Z,74.56
2023-01-19T08:51:47.566Z,74.82
2023-01-19T08:54:21.862Z,74.55
2023-01-19T08:56:54.284Z,74.70
2023-01-19T08:59:26.782Z,74.67
2023-01-19T09:01:59.264Z,74.68
2023-01-19T09:04:33.125Z,74.73
2023-01-19T09:09:43.499Z,74.83
2023-01-19T09:12:16.741Z,74.71
2023-01-19T09:14:49.089Z,74.63
2023-01-19T09:17:21.592Z,74.78
2023-01-19T09:19:54.228Z,74.57
2023-01-19T09:22:26.846Z,74.58
2023-01-19T09:24:59.228Z,74.49
2023-01-19T09:27:31.873Z,74.86
2023-01-19T09:30:04.552Z,74.61
2023-01-19T09:32:36.899Z,74.55
2023-01-19T09:35:11.482Z,74.74
2023-01-19T09:37:46.723Z,74.89
2023-01-19T09:40:19.548Z,74.64
2023-01-19T09:42:57.094Z,74.81
2023-01-19T09:45:37.613Z,74.81
2023-01-19T09:48:37.696Z,74.74
2023-01-19T09:51:16.153Z,74.68
2023-01-19T09:53:58.919Z,74.57
2023-01-19T09:56:32.909Z,74.69
2023-01-19T09:59:16.432Z,74.79
2023-01-19T10:02:00.196Z,74.52
2023-01-19T10:04:36.178Z,74.68
2023-01-19T10:07:31.439Z,74.56
2023-01-19T10:10:17.769Z,74.79
2023-01-19T10:13:01.541Z,74.55
2023-01-19T10:15:46.725Z,74.91
2023-01-19T10:18:25.787Z,74.72
2023-01-19T10:21:05.711Z,74.76
2023-01-19T10:23:45.204Z,75.07
2023-01-19T10:26:23.179Z,74.72
2023-01-19T10:29:02.933Z,74.86
2023-01-19T10:31:39.105Z,74.81
2023-01-19T10:34:21.560Z,74.91
2023-01-19T10:37:03.873Z,74.85
2023-01-19T10:39:38.719Z,74.80
2023-01-19T10:42:17.743Z,74.85
2023-01-19T10:44:50.866Z,74.86
2023-01-19T10:47:31.212Z,74.61
2023-01-19T10:50:23.813Z,74.62
2023-01-19T10:52:58.474Z,74.63
2023-01-19T10:55:33.574Z,74.97
2023-01-19T10:58:07.462Z,75.01
2023-01-19T11:00:44.157Z,74.88
2023-01-19T11:03:26.240Z,74.90
2023-01-19T11:06:20.549Z,75.25
2023-01-19T11:08:54.377Z,74.58
2023-01-19T11:11:27.496Z,74.86
2023-01-19T11:14:10.967Z,74.76
2023-01-19T11:16:47.440Z,74.89
2023-01-19T11:19:28.421Z,74.96
2023-01-19T11:22:21.742Z,74.95
2023-01-19T11:24:54.233Z,74.91
2023-01-19T11:27:27.250Z,74.65
2023-01-19T11:30:09.893Z,74.53
2023-01-19T11:32:43.164Z,75.03
2023-01-19T11:35:34.950Z,74.92
2023-01-19T11:38:18.391Z,74.77
2023-01-19T11:40:55.499Z,75.08
2023-01-19T11:43:43.511Z,74.82
2023-01-19T11:46:21.749Z,75.10
2023-01-19T11:49:02.102Z,75.10
2023-01-19T11:51:41.388Z,75.03
2023-01-19T11:54:23.853Z,74.93
2023-01-19T11:56:59.355Z,75.03
2023-01-19T11:59:31.774Z,75.04
2023-01-19T12:02:12.684Z,75.08
2023-01-19T12:04:46.839Z,75.12
2023-01-19T12:07:26.200Z,75.34
2023-01-19T12:10:07.509Z,74.96
2023-01-19T12:12:41.724Z,75.22
2023-01-19T12:15:26.492Z,75.14
2023-01-19T12:18:02.210Z,75.18
2023-01-19T12:20:39.043Z,75.09
2023-01-19T12:23:31.304Z,75.01
2023-01-19T12:26:27.967Z,75.08
2023-01-19T12:29:06.929Z,75.18
2023-01-19T12:31:40.905Z,75.18
2023-01-19T12:34:40.964Z,74.97
2023-01-19T12:37:38.076Z,75.15
2023-01-19T12:40:31.683Z,75.31
2023-01-19T12:43:06.801Z,74.93
2023-01-19T12:45:39.925Z,75.24
2023-01-19T12:48:28.676Z,75.37
2023-01-19T12:51:01.910Z,75.22
2023-01-19T12:53:35.076Z,75.29
2023-01-19T12:56:11.756Z,75.07
2023-01-19T12:58:52.010Z,75.11
2023-01-19T13:01:25.301Z,75.26
2023-01-19T13:04:28.995Z,75.05
2023-01-19T13:07:17.001Z,75.27
2023-01-19T13:09:49.761Z,74.97
2023-01-19T13:12:27.669Z,75.27
2023-01-19T13:15:35.529Z,75.18
2023-01-19T13:18:11.449Z,75.18
2023-01-19T13:20:54.237Z,75.15
2023-01-19T13:23:29.678Z,75.36
2023-01-19T13:26:15.500Z,75.04
2023-01-19T13:28:51.941Z,75.04
2023-01-19T13:31:25.533Z,75.31
2023-01-19T13:34:01.258Z,75.17
2023-01-19T13:36:44.896Z,75.09
2023-01-19T13:39:24.282Z,75.09
2023-01-19T13:42:00.380Z,75.31
2023-01-19T13:44:37.343Z,75.27
2023-01-19T13:47:14.027Z,75.41
2023-01-19T13:49:49.442Z,75.37
2023-01-19T13:52:25.338Z,75.17
2023-01-19T13:55:02.906Z,75.33
2023-01-19T13:57:41.432Z,75.20
2023-01-19T14:00:22.593Z,75.24
2023-01-19T14:02:59.024Z,75.05
2023-01-19T14:05:34.254Z,75.21
2023-01-19T14:08:14.069Z,75.30
2023-01-19T14:10:48.297Z,75.30
2023-01-19T14:13:23.117Z,75.29
2023-01-19T14:15:59.291Z,75.43
2023-01-19T14:18:33.286Z,75.46
2023-01-19T14:21:08.903Z,75.43
2023-01-19T14:23:48.340Z,75.28
2023-01-19T14:26:57.497Z,75.10
2023-01-19T14:29:33.103Z,75.25
2023-01-19T14:32:20.777Z,75.23
2023-01-19T14:35:13.666Z,75.36
2023-01-19T14:37:51.419Z,75.45
2023-01-19T14:40:25.576Z,75.29
2023-01-19T14:43:03.192Z,75.51
2023-01-19T14:45:38.649Z,75.64
2023-01-19T14:48:18.931Z,75.33
2023-01-19T14:51:02.891Z,75.41
2023-01-19T14:53:38.852Z,75.51
2023-01-19T14:56:11.510Z,75.63
2023-01-19T14:58:43.828Z,75.28
2023-01-19T15:01:16.468Z,75.26
2023-01-19T15:03:48.976Z,75.35
2023-01-19T15:06:23.261Z,75.30
2023-01-19T15:08:56.505Z,75.26
2023-01-19T15:11:32.428Z,75.21
2023-01-19T15:14:05.245Z,75.56
2023-01-19T15:16:37.737Z,75.47
2023-01-19T15:19:13.767Z,75.55
2023-01-19T15:21:47.061Z,75.55
2023-01-19T15:24:19.441Z,75.31
2023-01-19T15:26:52.050Z,75.38
2023-01-19T15:29:29.196Z,75.56
2023-01-19T15:32:02.421Z,75.53
2023-01-19T15:34:34.838Z,75.53
2023-01-19T15:37:07.174Z,75.33
2023-01-19T15:39:39.878Z,75.65
2023-01-19T15:42:15.733Z,75.50
2023-01-19T15:44:48.149Z,75.15
2023-01-19T15:47:20.790Z,75.42
2023-01-19T15:49:53.969Z,75.39
2023-01-19T15:52:26.402Z,75.24
2023-01-19T15:54:58.793Z,75.54
2023-01-19T15:57:31.166Z,75.47
2023-01-19T16:00:03.822Z,75.54
2023-01-19T16:02:42.349Z,75.28
2023-01-19T16:05:14.916Z,75.29
2023-01-19T16:07:47.265Z,75.70
2023-01-19T16:10:19.806Z,75.52
2023-01-19T16:12:52.188Z,75.49
2023-01-19T16:15:25.505Z,75.38
2023-01-19T16:17:58.448Z,75.52
2023-01-19T16:20:30.748Z,75.50
2023-01-19T16:23:14.879Z,75.71
2023-01-19T16:25:55.846Z,75.45
2023-01-19T16:28:28.803Z,75.52
2023-01-19T16:31:01.123Z,75.39
2023-01-19T16:33:33.510Z,75.16
2023-01-19T16:36:20.153Z,75.42
2023-01-19T16:38:53.017Z,75.38
2023-01-19T16:41:25.491Z,75.22
2023-01-19T16:43:59.176Z,75.58
2023-01-19T16:46:34.110Z,75.26
2023-01-19T16:49:10.770Z,75.65
2023-01-19T16:51:43.279Z,75.49
2023-01-19T16:54:18.360Z,75.43
2023-01-19T16:56:49.199Z,75.55
2023-01-19T16:59:22.907Z,75.56
2023-01-19T17:01:56.097Z,75.66
2023-01-19T17:04:28.649Z,75.70
2023-01-19T17:07:01.127Z,75.39
2023-01-19T17:09:34.139Z,75.36
2023-01-19T17:12:09.287Z,75.35
2023-01-19T17:14:43.239Z,75.18
2023-01-19T17:17:15.864Z,75.87
2023-01-19T17:19:48.287Z,75.53
2023-01-19T17:22:20.594Z,75.47
2023-01-19T17:24:52.928Z,75.42
2023-01-19T17:27:25.282Z,75.45
2023-01-19T17:29:57.603Z,75.49
2023-01-19T17:32:30.614Z,75.55
2023-01-19T17:35:03.087Z,75.48
2023-01-19T17:37:35.719Z,75.71
2023-01-19T17:40:13.030Z,75.50
2023-01-19T17:42:45.636Z,75.42
2023-01-19T17:45:18.280Z,75.46
2023-01-19T17:47:52.069Z,75.57
2023-01-19T17:50:24.545Z,75.43
2023-01-19T17:52:57.225Z,75.79
2023-01-19T17:55:29.728Z,75.46
2023-01-19T17:58:02.539Z,75.51
2023-01-19T18:00:34.966Z,75.57
2023-01-19T18:03:07.531Z,75.54
2023-01-19T18:05:39.945Z,75.34
2023-01-19T18:08:12.349Z,75.95
2023-01-19T18:10:44.836Z,75.66
2023-01-19T18:13:17.265Z,75.64
2023-01-19T18:15:49.691Z,75.60
2023-01-19T18:18:22.136Z,75.59
2023-01-19T18:20:54.612Z,75.64
2023-01-19T18:23:27.169Z,75.38
2023-01-19T18:26:04.450Z,75.58
2023-01-19T18:28:37.463Z,75.55
2023-01-19T18:31:11.844Z,75.55
2023-01-19T18:33:45.357Z,75.52
2023-01-19T18:36:17.955Z,75.64
2023-01-19T18:38:50.746Z,75.45
2023-01-19T18:41:24.250Z,75.62
2023-01-19T18:44:00.061Z,75.67
2023-01-19T18:46:32.557Z,75.94
2023-01-19T18:49:05.459Z,75.64
2023-01-19T18:51:39.677Z,75.61
2023-01-19T18:54:12.645Z,75.46
2023-01-19T18:56:45.010Z,75.60
2023-01-19T18:59:17.496Z,75.42
2023-01-19T19:01:49.965Z,75.63
2023-01-19T19:04:22.439Z,75.61
2023-01-19T19:06:54.937Z,75.55
2023-01-19T19:09:27.798Z,75.60
2023-01-19T19:12:00.831Z,75.41
2023-01-19T19:14:34.257Z,75.54
2023-01-19T19:17:06.860Z,75.68
2023-01-19T19:19:39.418Z,75.73
2023-01-19T19:22:11.795Z,75.51
2023-01-19T19:24:44.368Z,75.58
2023-01-19T19:27:17.871Z,75.72
2023-01-19T19:29:50.263Z,75.54
2023-01-19T19:32:22.768Z,75.57
2023-01-19T19:34:56.779Z,75.52
2023-01-19T19:37:29.667Z,75.30
2023-01-19T19:40:02.033Z,75.61
2023-01-19T19:42:36.656Z,75.22
2023-01-19T19:45:10.971Z,75.72
2023-01-19T19:47:44.059Z,75.19
2023-01-19T19:50:16.768Z,75.57
2023-01-19T19:52:49.270Z,75.58
2023-01-19T19:55:21.678Z,75.72
2023-01-19T19:57:54.973Z,75.35
2023-01-19T20:00:27.861Z,75.21
2023-01-19T20:03:00.305Z,75.48
2023-01-19T20:05:32.676Z,75.27
2023-01-19T20:08:05.175Z,75.49
2023-01-19T20:10:37.676Z,75.40
2023-01-19T20:13:10.179Z,75.49
2023-01-19T20:15:42.581Z,75.51
2023-01-19T20:18:15.130Z,75.42
2023-01-19T20:20:47.682Z,75.33
2023-01-19T20:23:20.209Z,75.30
2023-01-19T20:25:52.807Z,75.34
2023-01-19T20:28:26.053Z,75.14
2023-01-19T20:31:08.670Z,75.39
2023-01-19T20:33:41.268Z,75.39
2023-01-19T20:36:13.927Z,75.16
2023-01-19T20:38:46.887Z,75.35
2023-01-19T20:41:20.028Z,75.33
2023-01-19T20:43:53.119Z,75.41
2023-01-19T20:46:25.622Z,75.30
2023-01-19T20:48:58.057Z,75.21
2023-01-19T20:51:30.613Z,75.57
2023-01-19T20:54:02.948Z,75.40
2023-01-19T20:56:35.315Z,75.26
2023-01-19T20:59:07.817Z,75.12
2023-01-19T21:01:41.737Z,75.17
2023-01-19T21:04:14.797Z,75.17
2023-01-19T21:06:47.239Z,75.12
2023-01-19T21:09:19.802Z,75.52
2023-01-19T21:11:52.266Z,75.33
2023-01-19T21:14:24.706Z,75.21
2023-01-19T21:16:58.622Z,75.58
2023-01-19T21:19:31.184Z,75.13
2023-01-19T21:22:03.527Z,75.40
2023-01-19T21:24:36.033Z,75.15
2023-01-19T21:27:08.527Z,75.49
2023-01-19T21:29:41.362Z,75.17
2023-01-19T21:32:13.760Z,75.30
2023-01-19T21:34:46.985Z,75.10
2023-01-19T21:37:19.324Z,75.35
2023-01-19T21:39:51.673Z,75.12
2023-01-19T21:42:24.351Z,75.23
2023-01-19T21:44:56.747Z,75.38
2023-01-19T21:47:29.227Z,75.23
2023-01-19T21:50:02.284Z,75.23
2023-01-19T21:52:34.639Z,75.00
2023-01-19T21:55:09.803Z,75.41
2023-01-19T21:57:40.688Z,75.18
2023-01-19T22:00:15.985Z,75.24
2023-01-19T22:03:02.477Z,75.44
2023-01-19T22:05:38.165Z,75.52
2023-01-19T22:08:10.816Z,75.27
2023-01-19T22:10:43.266Z,75.44
2023-01-19T22:13:15.746Z,75.44
2023-01-19T22:15:48.088Z,75.32
2023-01-19T22:18:21.000Z,75.22
2023-01-19T22:20:53.374Z,75.19
2023-01-19T22:23:25.721Z,75.41
2023-01-19T22:26:01.764Z,75.19
2023-01-19T22:28:34.643Z,75.17
2023-01-19T22:31:10.006Z,75.23
2023-01-19T22:33:43.393Z,75.45
2023-01-19T22:36:19.543Z,75.31
2023-01-19T22:38:56.889Z,75.42
2023-01-19T22:41:30.685Z,75.17
2023-01-19T22:44:04.602Z,75.34
2023-01-19T22:46:38.297Z,75.40
2023-01-19T22:49:11.930Z,75.37
2023-01-19T22:51:44.687Z,75.25
2023-01-19T22:54:17.186Z,75.24
2023-01-19T22:56:49.611Z,75.17
2023-01-19T22:59:22.013Z,75.53
2023-01-19T23:01:54.587Z,75.44
2023-01-19T23:04:27.125Z,75.36
2023-01-19T23:06:59.443Z,75.36
2023-01-19T23:09:31.909Z,75.60
2023-01-19T23:12:04.564Z,75.49
2023-01-19T23:14:37.143Z,75.28
2023-01-19T23:17:09.618Z,75.57
2023-01-19T23:19:42.143Z,75.39
2023-01-19T23:22:14.708Z,75.52
2023-01-19T23:24:47.095Z,75.44
2023-01-19T23:27:19.626Z,75.43
2023-01-19T23:29:51.896Z,75.12
2023-01-19T23:32:24.266Z,75.54
2023-01-19T23:34:56.765Z,75.52
2023-01-19T23:37:29.148Z,75.24
2023-01-19T23:40:01.463Z,75.03
2023-01-19T23:42:33.833Z,75.34
2023-01-19T23:45:07.332Z,75.21
2023-01-19T23:47:43.291Z,74.75
2023-01-19T23:50:15.870Z,75.27
2023-01-19T23:52:48.098Z,75.44
2023-01-19T23:55:20.484Z,75.32
2023-01-19T23:57:52.734Z,75.38
